Time;durP1;ratioP1;P1;durP2;ratioP2;P2;SDS_P1;SDS_P2;PMS_P1;PMS_P2;Temp;Humidity;BMP_temperature;BMP_pressure;BME280_temperature;BME280_humidity;BME280_pressure;Samples;Min_cycle;Max_cycle;Signal;HPM_P1;HPM_P2
2022/04/02 00:01:25;;;;;;;0.68;0.68;;;;;;;;;;1825638;78;26274;-39
2022/04/02 00:03:53;;;;;;;0.70;0.70;;;;;;;;;;1808661;77;26270;-40
2022/04/02 00:06:20;;;;;;;0.72;0.72;;;;;;;;;;1825796;78;26352;-49
2022/04/02 00:08:47;;;;;;;0.80;0.80;;;;;;;;;;1825562;77;26287;-46
2022/04/02 00:11:16;;;;;;;0.70;0.70;;;;;;;;;;1825037;78;26641;-45
2022/04/02 00:13:43;;;;;;;0.62;0.62;;;;;;;;;;1833451;77;26398;-40
2022/04/02 00:16:11;;;;;;;1.35;0.82;;;;;;;;;;1829323;77;26267;-41
2022/04/02 00:18:39;;;;;;;0.80;0.80;;;;;;;;;;1824872;77;26286;-46
2022/04/02 00:21:06;;;;;;;0.75;0.75;;;;;;;;;;1846158;77;26291;-41
2022/04/02 00:23:36;;;;;;;0.70;0.70;;;;;;;;;;1829239;77;26340;-40
2022/04/02 00:26:04;;;;;;;0.60;0.60;;;;;;;;;;1825509;77;26851;-41
2022/04/02 00:28:32;;;;;;;0.60;0.60;;;;;;;;;;1825511;77;26792;-44
2022/04/02 00:30:59;;;;;;;0.70;0.70;;;;;;;;;;1825440;78;26424;-46
2022/04/02 00:33:27;;;;;;;0.70;0.70;;;;;;;;;;1841685;77;26247;-43
2022/04/02 00:35:54;;;;;;;0.60;0.60;;;;;;;;;;1825884;77;26291;-43
2022/04/02 00:38:21;;;;;;;0.70;0.70;;;;;;;;;;1815384;78;25933;-47
2022/04/02 00:40:48;;;;;;;0.60;0.60;;;;;;;;;;1811507;77;26671;-39
2022/04/02 00:43:23;;;;;;;0.70;0.70;;;;;;;;;;1856961;77;26307;-42
2022/04/02 00:45:51;;;;;;;0.95;0.70;;;;;;;;;;1825991;78;26310;-41
2022/04/02 00:48:19;;;;;;;0.57;0.57;;;;;;;;;;1825861;77;26281;-40
2022/04/02 00:50:47;;;;;;;0.60;0.60;;;;;;;;;;1825700;78;27364;-46
2022/04/02 00:53:15;;;;;;;0.70;0.70;;;;;;;;;;1822500;77;26379;-38
2022/04/02 00:55:43;;;;;;;0.70;0.70;;;;;;;;;;1825250;78;26390;-47
2022/04/02 00:58:11;;;;;;;0.70;0.70;;;;;;;;;;1825418;77;26287;-41
2022/04/02 01:00:40;;;;;;;0.70;0.70;;;;;;;;;;1826073;78;26259;-37
2022/04/02 01:03:09;;;;;;;0.65;0.65;;;;;;;;;;1825667;78;26302;-40
2022/04/02 01:05:37;;;;;;;0.85;0.57;;;;;;;;;;1814829;78;26789;-43
2022/04/02 01:08:05;;;;;;;0.53;0.53;;;;;;;;;;1820077;78;26749;-37
2022/04/02 01:10:34;;;;;;;0.60;0.60;;;;;;;;;;1827127;77;26387;-42
2022/04/02 01:13:01;;;;;;;0.60;0.60;;;;;;;;;;1822526;78;26334;-49
2022/04/02 01:15:28;;;;;;;0.60;0.60;;;;;;;;;;1823273;78;26328;-39
2022/04/02 01:17:55;;;;;;;0.90;0.90;;;;;;;;;;1822923;78;26309;-41
2022/04/02 01:20:23;;;;;;;0.60;0.60;;;;;;;;;;1823783;77;26762;-50
2022/04/02 01:22:51;;;;;;;0.60;0.60;;;;;;;;;;1831015;78;26349;-48
2022/04/02 01:25:19;;;;;;;0.60;0.60;;;;;;;;;;1838013;77;26333;-40
2022/04/02 01:27:47;;;;;;;0.60;0.60;;;;;;;;;;1826240;77;26696;-37
2022/04/02 01:30:15;;;;;;;1.00;0.70;;;;;;;;;;1829000;77;26266;-41
2022/04/02 01:32:42;;;;;;;0.60;0.60;;;;;;;;;;1831200;77;27378;-49
2022/04/02 01:35:13;;;;;;;0.70;0.70;;;;;;;;;;1832245;77;26333;-40
2022/04/02 01:37:40;;;;;;;0.60;0.60;;;;;;;;;;1831188;77;26796;-50
2022/04/02 01:40:08;;;;;;;0.50;0.50;;;;;;;;;;1820870;77;26734;-37
2022/04/02 01:42:35;;;;;;;0.60;0.60;;;;;;;;;;1823457;77;26245;-41
2022/04/02 01:45:03;;;;;;;0.57;0.57;;;;;;;;;;1824942;77;26317;-43
2022/04/02 01:47:30;;;;;;;1.45;0.60;;;;;;;;;;1824947;78;26395;-50
2022/04/02 01:49:58;;;;;;;0.70;0.70;;;;;;;;;;1825281;78;26266;-49
2022/04/02 01:52:26;;;;;;;0.70;0.70;;;;;;;;;;1825124;78;26438;-46
2022/04/02 01:54:53;;;;;;;0.80;0.80;;;;;;;;;;1823201;77;26306;-39
2022/04/02 01:57:21;;;;;;;0.68;0.53;;;;;;;;;;1825322;78;26293;-46
2022/04/02 01:59:50;;;;;;;0.68;0.68;;;;;;;;;;1821434;77;26242;-42
2022/04/02 02:02:20;;;;;;;0.72;0.72;;;;;;;;;;1825184;78;26376;-44
2022/04/02 02:04:48;;;;;;;0.60;0.60;;;;;;;;;;1824995;78;26335;-41
2022/04/02 02:07:15;;;;;;;0.60;0.60;;;;;;;;;;1825480;78;26271;-41
2022/04/02 02:09:43;;;;;;;0.62;0.62;;;;;;;;;;1837207;77;26742;-37
2022/04/02 02:12:10;;;;;;;0.60;0.60;;;;;;;;;;1824792;78;26322;-40
2022/04/02 02:14:38;;;;;;;0.60;0.60;;;;;;;;;;1824524;78;26286;-39
2022/04/02 02:17:05;;;;;;;0.60;0.60;;;;;;;;;;1825573;78;26750;-47
2022/04/02 02:19:32;;;;;;;0.80;0.80;;;;;;;;;;1825926;78;26368;-41
2022/04/02 02:22:00;;;;;;;0.60;0.60;;;;;;;;;;1825421;77;26395;-47
2022/04/02 02:24:28;;;;;;;1.10;0.70;;;;;;;;;;1825602;78;26830;-43
2022/04/02 02:26:55;;;;;;;0.50;0.50;;;;;;;;;;1825518;77;26286;-45
2022/04/02 02:29:23;;;;;;;0.60;0.60;;;;;;;;;;1827215;77;26279;-37
2022/04/02 02:31:50;;;;;;;0.50;0.50;;;;;;;;;;1839095;77;26310;-43
2022/04/02 02:37:02;;;;;;;0.60;0.60;;;;;;;;;;1825644;77;26329;-41
2022/04/02 02:39:30;;;;;;;1.45;0.70;;;;;;;;;;1825816;77;26389;-47
2022/04/02 02:41:57;;;;;;;0.60;0.60;;;;;;;;;;1834713;77;26318;-47
2022/04/02 02:44:24;;;;;;;0.68;0.68;;;;;;;;;;1824044;78;26293;-50
2022/04/02 02:46:52;;;;;;;1.75;0.60;;;;;;;;;;1825783;77;26286;-46
2022/04/02 02:49:19;;;;;;;0.42;0.42;;;;;;;;;;1825959;78;26356;-39
2022/04/02 02:51:46;;;;;;;1.30;0.50;;;;;;;;;;1826439;77;26317;-44
2022/04/02 02:54:13;;;;;;;0.60;0.60;;;;;;;;;;1833145;78;26731;-39
2022/04/02 02:56:41;;;;;;;1.05;0.70;;;;;;;;;;1835119;78;26937;-41
2022/04/02 02:59:08;;;;;;;0.50;0.50;;;;;;;;;;1835839;77;26787;-42
2022/04/02 03:01:35;;;;;;;0.65;0.65;;;;;;;;;;1835176;77;26240;-44
2022/04/02 03:04:02;;;;;;;0.70;0.55;;;;;;;;;;1848226;77;26348;-39
2022/04/02 03:06:30;;;;;;;0.72;0.72;;;;;;;;;;1835406;77;26367;-44
2022/04/02 03:08:57;;;;;;;0.55;0.55;;;;;;;;;;1863517;77;26305;-38
2022/04/02 03:11:24;;;;;;;0.70;0.70;;;;;;;;;;1848427;77;26249;-43
2022/04/02 03:13:52;;;;;;;0.82;0.68;;;;;;;;;;1840728;77;26356;-39
2022/04/02 03:16:19;;;;;;;0.57;0.57;;;;;;;;;;1834157;77;26575;-38
2022/04/02 03:18:46;;;;;;;0.70;0.70;;;;;;;;;;1826379;77;26345;-39
2022/04/02 03:21:13;;;;;;;0.62;0.62;;;;;;;;;;1839608;77;26343;-37
2022/04/02 03:23:41;;;;;;;0.62;0.62;;;;;;;;;;1832972;77;26299;-40
2022/04/02 03:26:08;;;;;;;0.60;0.60;;;;;;;;;;1838771;77;26267;-48
2022/04/02 03:28:35;;;;;;;0.70;0.70;;;;;;;;;;1835030;78;26299;-43
2022/04/02 03:31:03;;;;;;;0.60;0.60;;;;;;;;;;1837075;77;26250;-48
2022/04/02 03:33:31;;;;;;;0.50;0.50;;;;;;;;;;1837985;77;26312;-36
2022/04/02 03:35:58;;;;;;;0.72;0.60;;;;;;;;;;1834989;78;26308;-45
2022/04/02 03:38:25;;;;;;;1.05;0.60;;;;;;;;;;1834710;77;26303;-37
2022/04/02 03:40:52;;;;;;;0.50;0.50;;;;;;;;;;1835143;77;26303;-38
2022/04/02 03:43:21;;;;;;;0.53;0.53;;;;;;;;;;1835123;77;26288;-38
2022/04/02 03:45:48;;;;;;;0.60;0.60;;;;;;;;;;1835315;78;26692;-41
2022/04/02 03:48:15;;;;;;;0.42;0.42;;;;;;;;;;1835183;77;26285;-41
2022/04/02 03:50:42;;;;;;;0.60;0.60;;;;;;;;;;1835461;77;26296;-37
2022/04/02 03:53:10;;;;;;;0.53;0.53;;;;;;;;;;1830547;77;26353;-41
2022/04/02 03:55:37;;;;;;;0.60;0.60;;;;;;;;;;1825886;77;26385;-44
2022/04/02 03:58:04;;;;;;;0.60;0.60;;;;;;;;;;1825792;78;26224;-44
2022/04/02 04:00:32;;;;;;;0.60;0.60;;;;;;;;;;1826042;78;26214;-48
2022/04/02 04:03:00;;;;;;;0.65;0.65;;;;;;;;;;1822264;77;28193;-43
2022/04/02 04:05:28;;;;;;;0.85;0.70;;;;;;;;;;1825288;77;26384;-44
2022/04/02 04:07:56;;;;;;;1.30;0.60;;;;;;;;;;1825010;78;26289;-43
2022/04/02 04:10:23;;;;;;;0.40;0.40;;;;;;;;;;1825833;77;26313;-44
2022/04/02 04:12:50;;;;;;;0.50;0.50;;;;;;;;;;1829428;77;26340;-48
2022/04/02 04:15:18;;;;;;;0.50;0.50;;;;;;;;;;1824908;78;26250;-39
2022/04/02 04:17:45;;;;;;;1.40;0.50;;;;;;;;;;1840416;77;26745;-39
2022/04/02 04:20:12;;;;;;;0.47;0.47;;;;;;;;;;1825940;78;27253;-38
2022/04/02 04:22:39;;;;;;;0.50;0.50;;;;;;;;;;1825285;77;26270;-43
2022/04/02 04:25:10;;;;;;;0.53;0.53;;;;;;;;;;1811614;77;26274;-40
2022/04/02 04:27:37;;;;;;;0.60;0.60;;;;;;;;;;1820806;77;26258;-46
2022/04/02 04:30:05;;;;;;;0.50;0.50;;;;;;;;;;1824460;77;27227;-37
2022/04/02 04:32:33;;;;;;;0.42;0.42;;;;;;;;;;1825435;77;26872;-39
2022/04/02 04:35:00;;;;;;;0.55;0.55;;;;;;;;;;1827467;77;26693;-43
2022/04/02 04:37:28;;;;;;;0.45;0.45;;;;;;;;;;1825335;77;26285;-43
2022/04/02 04:39:55;;;;;;;0.60;0.60;;;;;;;;;;1825144;78;26392;-47
2022/04/02 04:42:22;;;;;;;0.50;0.50;;;;;;;;;;1825344;78;26309;-37
2022/04/02 04:44:50;;;;;;;0.50;0.50;;;;;;;;;;1827657;77;26299;-49
2022/04/02 04:47:17;;;;;;;0.60;0.60;;;;;;;;;;1825247;77;26347;-48
2022/04/02 04:49:44;;;;;;;0.50;0.50;;;;;;;;;;1825287;77;26266;-49
2022/04/02 04:52:11;;;;;;;0.60;0.60;;;;;;;;;;1823340;77;26295;-43
2022/04/02 04:54:39;;;;;;;1.27;0.60;;;;;;;;;;1824450;77;26403;-46
2022/04/02 04:57:06;;;;;;;0.45;0.45;;;;;;;;;;1822487;77;26321;-42
2022/04/02 04:59:33;;;;;;;0.55;0.55;;;;;;;;;;1825363;77;26774;-43
2022/04/02 05:02:00;;;;;;;0.60;0.60;;;;;;;;;;1822837;77;26726;-41
2022/04/02 05:04:28;;;;;;;0.40;0.40;;;;;;;;;;1823453;77;26792;-45
2022/04/02 05:06:55;;;;;;;0.57;0.57;;;;;;;;;;1825201;77;26274;-46
2022/04/02 05:09:23;;;;;;;0.50;0.50;;;;;;;;;;1825590;77;26969;-42
2022/04/02 05:11:50;;;;;;;0.60;0.60;;;;;;;;;;1828688;78;26769;-36
2022/04/02 05:14:18;;;;;;;0.60;0.60;;;;;;;;;;1826356;77;26352;-36
2022/04/02 05:16:45;;;;;;;0.50;0.50;;;;;;;;;;1836308;77;26714;-39
2022/04/02 05:19:12;;;;;;;0.60;0.60;;;;;;;;;;1823526;77;26278;-43
2022/04/02 05:21:40;;;;;;;0.45;0.45;;;;;;;;;;1815226;77;26248;-38
2022/04/02 05:24:07;;;;;;;0.47;0.47;;;;;;;;;;1825123;77;26220;-36
2022/04/02 05:26:34;;;;;;;0.60;0.60;;;;;;;;;;1826005;78;26367;-41
2022/04/02 05:29:02;;;;;;;0.50;0.50;;;;;;;;;;1835866;77;26427;-40
2022/04/02 05:31:29;;;;;;;0.50;0.50;;;;;;;;;;1831015;77;26828;-41
2022/04/02 05:33:56;;;;;;;1.27;0.50;;;;;;;;;;1825101;77;26801;-37
2022/04/02 05:36:24;;;;;;;0.55;0.55;;;;;;;;;;1825396;77;26329;-45
2022/04/02 05:38:51;;;;;;;1.85;0.70;;;;;;;;;;1824425;77;26381;-37
2022/04/02 05:41:18;;;;;;;0.50;0.50;;;;;;;;;;1825595;77;26585;-37
2022/04/02 05:43:46;;;;;;;0.53;0.53;;;;;;;;;;1825209;78;26351;-44
2022/04/02 05:46:13;;;;;;;0.60;0.60;;;;;;;;;;1818368;77;26300;-38
2022/04/02 05:48:40;;;;;;;0.93;0.50;;;;;;;;;;1823406;77;26297;-39
2022/04/02 05:51:08;;;;;;;2.00;0.60;;;;;;;;;;1830937;77;26799;-39
2022/04/02 05:53:36;;;;;;;1.35;0.62;;;;;;;;;;1821119;77;26388;-48
2022/04/02 05:56:03;;;;;;;0.53;0.53;;;;;;;;;;1825867;78;26663;-39
2022/04/02 05:58:31;;;;;;;0.82;0.82;;;;;;;;;;1825662;78;26295;-39
2022/04/02 06:00:58;;;;;;;0.60;0.60;;;;;;;;;;1825775;77;26360;-43
2022/04/02 06:03:25;;;;;;;2.00;0.53;;;;;;;;;;1831203;77;26833;-47
2022/04/02 06:05:52;;;;;;;1.50;1.15;;;;;;;;;;1857271;77;26741;-47
2022/04/02 06:08:20;;;;;;;0.60;0.60;;;;;;;;;;1833895;77;26317;-44
2022/04/02 06:10:47;;;;;;;1.37;0.60;;;;;;;;;;1840082;77;26298;-45
2022/04/02 06:13:14;;;;;;;0.60;0.60;;;;;;;;;;1827201;77;26240;-46
2022/04/02 06:15:42;;;;;;;0.70;0.70;;;;;;;;;;1825874;78;26279;-39
2022/04/02 06:18:09;;;;;;;0.60;0.60;;;;;;;;;;1825701;78;26289;-37
2022/04/02 06:20:36;;;;;;;0.65;0.65;;;;;;;;;;1826474;77;26290;-50
2022/04/02 06:23:03;;;;;;;0.53;0.53;;;;;;;;;;1825588;78;26277;-39
2022/04/02 06:25:31;;;;;;;1.12;0.60;;;;;;;;;;1824724;77;26348;-37
2022/04/02 06:27:58;;;;;;;0.50;0.50;;;;;;;;;;1824477;77;26344;-46
2022/04/02 06:30:25;;;;;;;0.68;0.68;;;;;;;;;;1824872;77;26396;-40
2022/04/02 06:32:53;;;;;;;0.57;0.57;;;;;;;;;;1823289;77;26798;-41
2022/04/02 06:35:21;;;;;;;0.50;0.50;;;;;;;;;;1824952;77;26254;-41
2022/04/02 06:37:48;;;;;;;0.50;0.50;;;;;;;;;;1825305;77;26279;-38
2022/04/02 06:40:16;;;;;;;0.60;0.60;;;;;;;;;;1825483;77;27281;-44
2022/04/02 06:42:43;;;;;;;0.53;0.53;;;;;;;;;;1817011;77;26278;-47
2022/04/02 06:45:11;;;;;;;0.60;0.60;;;;;;;;;;1825185;77;26372;-37
2022/04/02 06:47:38;;;;;;;0.60;0.60;;;;;;;;;;1824897;77;27760;-51
2022/04/02 06:50:07;;;;;;;0.57;0.57;;;;;;;;;;1824969;77;26269;-49
2022/04/02 06:52:34;;;;;;;0.50;0.50;;;;;;;;;;1825014;77;26805;-43
2022/04/02 06:55:02;;;;;;;0.60;0.60;;;;;;;;;;1818161;77;26310;-41
2022/04/02 06:57:30;;;;;;;0.62;0.60;;;;;;;;;;1817370;79;26687;-41
2022/04/02 06:59:57;;;;;;;0.60;0.60;;;;;;;;;;1816005;77;26267;-41
2022/04/02 07:02:24;;;;;;;0.70;0.70;;;;;;;;;;1813858;77;26306;-50
2022/04/02 07:04:51;;;;;;;0.70;0.70;;;;;;;;;;1819399;77;26306;-49
2022/04/02 07:07:19;;;;;;;1.75;0.60;;;;;;;;;;1816912;77;26622;-51
2022/04/02 07:09:47;;;;;;;2.75;1.30;;;;;;;;;;1816296;77;26795;-41
2022/04/02 07:12:14;;;;;;;2.90;0.60;;;;;;;;;;1811335;77;26318;-44
2022/04/02 07:14:41;;;;;;;2.35;0.90;;;;;;;;;;1812473;77;26283;-50
2022/04/02 07:17:09;;;;;;;1.30;0.75;;;;;;;;;;1815516;77;26295;-37
2022/04/02 07:19:38;;;;;;;3.92;0.80;;;;;;;;;;1815792;77;26782;-42
2022/04/02 07:22:09;;;;;;;0.98;0.70;;;;;;;;;;1817506;79;26340;-43
2022/04/02 07:24:39;;;;;;;2.50;0.78;;;;;;;;;;1816072;77;26699;-42
2022/04/02 07:27:10;;;;;;;5.83;0.95;;;;;;;;;;1815982;77;26734;-39
2022/04/02 07:29:38;;;;;;;3.65;0.70;;;;;;;;;;1816900;77;26303;-44
2022/04/02 07:32:07;;;;;;;3.50;0.75;;;;;;;;;;1817278;78;26306;-45
2022/04/02 07:34:35;;;;;;;4.37;1.00;;;;;;;;;;1814834;77;26306;-41
2022/04/02 07:37:07;;;;;;;2.92;0.88;;;;;;;;;;1813822;77;26302;-46
2022/04/02 07:39:41;;;;;;;1.07;0.70;;;;;;;;;;1809856;77;26243;-40
2022/04/02 07:42:11;;;;;;;2.47;0.85;;;;;;;;;;1812449;77;26297;-40
2022/04/02 07:44:40;;;;;;;3.40;1.22;;;;;;;;;;1811328;77;26303;-42
2022/04/02 07:47:08;;;;;;;3.80;0.80;;;;;;;;;;1816496;78;26267;-42
2022/04/02 07:49:37;;;;;;;2.25;0.75;;;;;;;;;;1814613;78;26231;-45
2022/04/02 07:52:05;;;;;;;1.47;0.60;;;;;;;;;;1814973;78;26900;-41
2022/04/02 07:54:34;;;;;;;1.15;0.75;;;;;;;;;;1818857;78;26383;-38
2022/04/02 07:57:02;;;;;;;1.05;0.70;;;;;;;;;;1825284;78;26372;-50
2022/04/02 07:59:37;;;;;;;0.90;0.72;;;;;;;;;;1824632;77;26211;-41
2022/04/02 08:02:36;;;;;;;1.40;0.90;;;;;;;;;;1823614;77;26718;-43
2022/04/02 08:04:34;;;;;;;1.75;0.80;;;;;;;;;;1819273;77;26340;-48
2022/04/02 08:07:01;;;;;;;1.10;0.70;;;;;;;;;;1824799;78;26815;-46
2022/04/02 08:09:30;;;;;;;2.45;0.80;;;;;;;;;;1824703;77;26317;-39
2022/04/02 08:11:57;;;;;;;2.95;0.80;;;;;;;;;;1824706;77;26431;-49
2022/04/02 08:14:25;;;;;;;1.77;0.60;;;;;;;;;;1826202;77;26263;-37
2022/04/02 08:16:53;;;;;;;1.27;0.70;;;;;;;;;;1823803;77;26384;-40
2022/04/02 08:19:23;;;;;;;1.05;0.70;;;;;;;;;;1825681;78;26261;-42
2022/04/02 08:21:50;;;;;;;3.40;0.70;;;;;;;;;;1825420;77;26836;-44
2022/04/02 08:24:17;;;;;;;1.75;0.60;;;;;;;;;;1822962;77;26266;-43
2022/04/02 08:26:46;;;;;;;1.77;0.70;;;;;;;;;;1824735;77;26219;-41
2022/04/02 08:29:20;;;;;;;4.37;0.80;;;;;;;;;;1826961;77;26649;-43
2022/04/02 08:31:58;;;;;;;0.62;0.60;;;;;;;;;;1823955;77;26640;-42
2022/04/02 08:34:27;;;;;;;0.55;0.55;;;;;;;;;;1825164;77;26735;-45
2022/04/02 08:37:12;;;;;;;1.10;0.55;;;;;;;;;;1824496;78;26734;-41
2022/04/02 08:39:50;;;;;;;1.37;0.50;;;;;;;;;;1824724;78;26341;-43
2022/04/02 08:42:21;;;;;;;0.50;0.50;;;;;;;;;;1824342;77;26285;-43
2022/04/02 08:44:53;;;;;;;0.50;0.50;;;;;;;;;;1823111;77;27204;-48
2022/04/02 08:47:22;;;;;;;0.50;0.50;;;;;;;;;;1824802;78;26290;-38
2022/04/02 08:50:00;;;;;;;0.55;0.55;;;;;;;;;;1824903;78;26285;-40
2022/04/02 08:52:29;;;;;;;0.50;0.50;;;;;;;;;;1822919;77;26297;-37
2022/04/02 08:55:10;;;;;;;0.55;0.55;;;;;;;;;;1822186;77;26314;-41
2022/04/02 08:57:41;;;;;;;1.47;0.57;;;;;;;;;;1812579;78;26230;-47
2022/04/02 09:00:10;;;;;;;0.60;0.60;;;;;;;;;;1809487;77;26279;-44
2022/04/02 09:02:57;;;;;;;0.68;0.68;;;;;;;;;;1814627;77;26692;-40
2022/04/02 09:05:42;;;;;;;0.42;0.42;;;;;;;;;;1818134;77;26333;-45
2022/04/02 09:08:14;;;;;;;0.40;0.40;;;;;;;;;;1817150;77;26401;-40
2022/04/02 09:10:46;;;;;;;0.50;0.50;;;;;;;;;;1799956;77;26325;-44
2022/04/02 09:13:15;;;;;;;0.37;0.37;;;;;;;;;;1801184;77;26401;-39
2022/04/02 09:15:50;;;;;;;0.40;0.40;;;;;;;;;;1816924;77;26592;-45
2022/04/02 09:18:17;;;;;;;0.47;0.47;;;;;;;;;;1811986;77;26795;-41
2022/04/02 09:20:48;;;;;;;0.93;0.40;;;;;;;;;;1753858;79;26832;-44
2022/04/02 09:23:17;;;;;;;0.47;0.47;;;;;;;;;;1817307;77;26820;-42
2022/04/02 09:25:48;;;;;;;0.68;0.68;;;;;;;;;;1768918;78;26726;-40
2022/04/02 09:28:34;;;;;;;0.40;0.40;;;;;;;;;;1808492;77;26284;-37
2022/04/02 09:31:20;;;;;;;0.47;0.47;;;;;;;;;;1805578;78;26388;-48
2022/04/02 09:34:03;;;;;;;0.47;0.40;;;;;;;;;;1815272;78;26290;-37
2022/04/02 09:36:35;;;;;;;0.40;0.40;;;;;;;;;;1811306;77;26299;-38
2022/04/02 09:39:07;;;;;;;0.50;0.50;;;;;;;;;;1815043;77;26294;-46
2022/04/02 09:41:38;;;;;;;0.50;0.50;;;;;;;;;;1811716;77;26277;-39
2022/04/02 09:44:16;;;;;;;0.30;0.30;;;;;;;;;;1813429;77;26279;-50
2022/04/02 09:46:48;;;;;;;0.40;0.40;;;;;;;;;;1816388;79;26286;-46
2022/04/02 09:49:17;;;;;;;0.50;0.50;;;;;;;;;;1811042;77;26323;-40
2022/04/02 09:51:46;;;;;;;0.80;0.50;;;;;;;;;;1814111;78;26703;-42
2022/04/02 09:54:16;;;;;;;0.50;0.50;;;;;;;;;;1815174;78;26727;-39
2022/04/02 09:56:45;;;;;;;0.53;0.53;;;;;;;;;;1820518;78;26385;-42
2022/04/02 09:59:13;;;;;;;0.40;0.40;;;;;;;;;;1825235;77;26305;-37
2022/04/02 10:01:52;;;;;;;0.53;0.53;;;;;;;;;;1835603;77;26689;-43
2022/04/02 10:04:30;;;;;;;0.42;0.42;;;;;;;;;;1826089;77;26716;-37
2022/04/02 10:06:58;;;;;;;0.40;0.40;;;;;;;;;;1825114;78;26378;-43
2022/04/02 10:09:27;;;;;;;0.53;0.53;;;;;;;;;;1827038;77;26391;-39
2022/04/02 10:12:01;;;;;;;0.88;0.60;;;;;;;;;;1825057;77;26378;-38
2022/04/02 10:14:30;;;;;;;0.37;0.37;;;;;;;;;;1824058;77;26612;-45
2022/04/02 10:17:06;;;;;;;0.60;0.60;;;;;;;;;;1825782;77;26723;-40
2022/04/02 10:19:38;;;;;;;1.05;0.35;;;;;;;;;;1824827;78;26302;-40
2022/04/02 10:22:07;;;;;;;0.30;0.30;;;;;;;;;;1824114;78;26761;-41
2022/04/02 10:24:51;;;;;;;0.62;0.40;;;;;;;;;;1817659;77;26378;-41
2022/04/02 10:27:35;;;;;;;1.37;0.53;;;;;;;;;;1824886;77;26250;-37
2022/04/02 10:30:04;;;;;;;0.47;0.47;;;;;;;;;;1825689;77;26334;-50
2022/04/02 10:32:33;;;;;;;0.40;0.40;;;;;;;;;;1828836;77;26302;-39
2022/04/02 10:35:08;;;;;;;0.50;0.50;;;;;;;;;;1825541;77;26299;-46
2022/04/02 10:37:39;;;;;;;0.50;0.50;;;;;;;;;;1825452;78;26274;-42
2022/04/02 10:40:11;;;;;;;0.90;0.60;;;;;;;;;;1824246;78;26652;-40
2022/04/02 10:42:40;;;;;;;0.88;0.33;;;;;;;;;;1824640;77;26743;-41
2022/04/02 10:45:14;;;;;;;0.50;0.50;;;;;;;;;;1825701;77;26754;-44
2022/04/02 10:47:45;;;;;;;0.78;0.50;;;;;;;;;;1821454;77;26872;-50
2022/04/02 10:50:14;;;;;;;0.40;0.40;;;;;;;;;;1822617;77;26349;-46
2022/04/02 10:52:42;;;;;;;0.40;0.40;;;;;;;;;;1803223;77;26332;-45
2022/04/02 10:55:11;;;;;;;0.40;0.40;;;;;;;;;;1810338;78;26301;-47
2022/04/02 10:57:39;;;;;;;0.40;0.40;;;;;;;;;;1825923;77;26318;-42
2022/04/02 11:00:10;;;;;;;0.57;0.53;;;;;;;;;;1828305;77;26274;-43
2022/04/02 11:02:44;;;;;;;1.35;0.62;;;;;;;;;;1825958;78;26344;-43
2022/04/02 11:05:09;;;;;;;0.40;0.40;;;;;;;;;;1824479;77;26282;-45
2022/04/02 11:07:40;;;;;;;0.40;0.40;;;;;;;;;;1824534;77;26230;-41
2022/04/02 11:10:08;;;;;;;0.50;0.50;;;;;;;;;;1825025;77;26337;-45
2022/04/02 11:12:44;;;;;;;0.37;0.37;;;;;;;;;;1825284;77;26270;-43
2022/04/02 11:15:16;;;;;;;0.40;0.40;;;;;;;;;;1824748;77;26355;-42
2022/04/02 11:17:44;;;;;;;0.33;0.33;;;;;;;;;;1825635;78;26266;-41
2022/04/02 11:20:17;;;;;;;0.37;0.37;;;;;;;;;;1825551;78;26337;-45
2022/04/02 11:22:56;;;;;;;0.50;0.50;;;;;;;;;;1837304;77;26279;-40
2022/04/02 11:25:35;;;;;;;0.40;0.40;;;;;;;;;;1825422;77;26651;-39
2022/04/02 11:28:10;;;;;;;0.40;0.40;;;;;;;;;;1823437;78;26239;-40
2022/04/02 11:30:40;;;;;;;0.37;0.37;;;;;;;;;;1824662;77;26285;-41
2022/04/02 11:33:09;;;;;;;0.40;0.40;;;;;;;;;;1825585;77;26619;-44
2022/04/02 11:35:47;;;;;;;0.30;0.30;;;;;;;;;;1825827;77;26306;-41
2022/04/02 11:38:23;;;;;;;0.40;0.40;;;;;;;;;;1825405;78;26708;-45
2022/04/02 11:41:08;;;;;;;1.27;0.50;;;;;;;;;;1824764;77;26290;-41
2022/04/02 11:43:39;;;;;;;0.40;0.40;;;;;;;;;;1823351;77;26298;-41
2022/04/02 11:46:11;;;;;;;0.20;0.20;;;;;;;;;;1824144;78;26348;-42
2022/04/02 11:48:40;;;;;;;0.30;0.30;;;;;;;;;;1824219;77;26266;-42
2022/04/02 11:51:14;;;;;;;0.30;0.30;;;;;;;;;;1811681;78;26295;-44
2022/04/02 11:53:42;;;;;;;0.30;0.30;;;;;;;;;;1816877;77;26227;-41
2022/04/02 11:56:25;;;;;;;0.25;0.25;;;;;;;;;;1825921;78;26727;-43
2022/04/02 11:58:54;;;;;;;0.57;0.37;;;;;;;;;;1827419;77;26572;-46
2022/04/02 12:01:22;;;;;;;0.40;0.40;;;;;;;;;;1820103;77;26262;-37
2022/04/02 12:04:09;;;;;;;0.23;0.23;;;;;;;;;;1824834;77;27688;-42
2022/04/02 12:06:38;;;;;;;0.33;0.33;;;;;;;;;;1819824;77;26662;-43
2022/04/02 12:09:22;;;;;;;0.40;0.40;;;;;;;;;;1825434;77;26769;-50
2022/04/02 12:11:50;;;;;;;0.40;0.40;;;;;;;;;;1827921;77;26763;-39
2022/04/02 12:14:28;;;;;;;1.00;0.40;;;;;;;;;;1824663;78;26275;-51
2022/04/02 12:16:57;;;;;;;0.20;0.20;;;;;;;;;;1825653;78;26352;-41
2022/04/02 12:19:26;;;;;;;0.30;0.30;;;;;;;;;;1825530;78;26282;-39
2022/04/02 12:21:53;;;;;;;0.30;0.30;;;;;;;;;;1825253;77;26254;-48
2022/04/02 12:24:20;;;;;;;0.20;0.20;;;;;;;;;;1825289;78;26294;-37
2022/04/02 12:26:47;;;;;;;0.42;0.42;;;;;;;;;;1805310;78;26214;-42
2022/04/02 12:29:16;;;;;;;0.40;0.40;;;;;;;;;;1823114;77;26272;-45
2022/04/02 12:31:45;;;;;;;0.20;0.20;;;;;;;;;;1824483;77;26265;-45
2022/04/02 12:34:17;;;;;;;0.30;0.30;;;;;;;;;;1824820;77;26299;-42
2022/04/02 12:36:43;;;;;;;0.30;0.30;;;;;;;;;;1824650;77;26289;-41
2022/04/02 12:39:11;;;;;;;0.37;0.37;;;;;;;;;;1822819;77;26750;-42
2022/04/02 12:41:49;;;;;;;0.23;0.23;;;;;;;;;;1826628;77;26844;-48
2022/04/02 12:44:20;;;;;;;0.40;0.40;;;;;;;;;;1808593;77;26317;-47
2022/04/02 12:46:47;;;;;;;0.28;0.28;;;;;;;;;;1811956;77;26336;-39
2022/04/02 12:49:31;;;;;;;0.25;0.25;;;;;;;;;;1826072;78;26270;-49
2022/04/02 12:52:06;;;;;;;0.30;0.30;;;;;;;;;;1825517;77;26361;-47
2022/04/02 12:54:33;;;;;;;0.30;0.30;;;;;;;;;;1819637;78;26275;-45
2022/04/02 12:57:13;;;;;;;0.40;0.40;;;;;;;;;;1820350;78;26290;-39
2022/04/02 12:59:42;;;;;;;0.35;0.35;;;;;;;;;;1823220;77;26263;-47
2022/04/02 13:02:11;;;;;;;0.40;0.40;;;;;;;;;;1818275;79;26380;-45
2022/04/02 13:04:41;;;;;;;0.40;0.40;;;;;;;;;;1810146;78;27372;-39
2022/04/02 13:07:09;;;;;;;0.25;0.25;;;;;;;;;;1814247;77;26382;-39
2022/04/02 13:09:39;;;;;;;0.28;0.28;;;;;;;;;;1832569;77;26311;-41
2022/04/02 13:12:09;;;;;;;0.20;0.20;;;;;;;;;;1811280;77;26372;-45
2022/04/02 13:14:45;;;;;;;0.50;0.50;;;;;;;;;;1806106;77;26269;-52
2022/04/02 13:17:11;;;;;;;0.30;0.30;;;;;;;;;;1813725;77;26282;-40
2022/04/02 13:22:32;;;;;;;0.28;0.28;;;;;;;;;;1818067;77;26339;-41
2022/04/02 13:25:00;;;;;;;0.28;0.28;;;;;;;;;;1814968;77;26720;-37
2022/04/02 13:27:32;;;;;;;0.30;0.30;;;;;;;;;;1814396;77;26325;-37
2022/04/02 13:30:10;;;;;;;0.40;0.40;;;;;;;;;;1816716;77;26685;-40
2022/04/02 13:32:54;;;;;;;0.30;0.30;;;;;;;;;;1815312;77;26283;-47
2022/04/02 13:35:41;;;;;;;0.30;0.30;;;;;;;;;;1718146;82;26264;-40
2022/04/02 13:38:10;;;;;;;0.20;0.20;;;;;;;;;;1797620;77;26283;-45
2022/04/02 13:40:38;;;;;;;0.30;0.30;;;;;;;;;;1817589;77;26797;-51
2022/04/02 13:43:06;;;;;;;0.25;0.25;;;;;;;;;;1813944;77;26318;-55
2022/04/02 13:45:35;;;;;;;0.30;0.30;;;;;;;;;;1816373;77;26291;-42
2022/04/02 13:48:04;;;;;;;0.50;0.33;;;;;;;;;;1816119;77;26346;-44
2022/04/02 13:50:33;;;;;;;1.27;0.37;;;;;;;;;;1816009;77;26569;-40
2022/04/02 13:53:02;;;;;;;0.30;0.30;;;;;;;;;;1817804;78;26282;-39
2022/04/02 13:55:30;;;;;;;0.85;0.37;;;;;;;;;;1815017;78;26263;-39
2022/04/02 13:57:59;;;;;;;1.55;0.80;;;;;;;;;;1820255;78;26991;-41
2022/04/02 14:00:27;;;;;;;0.20;0.20;;;;;;;;;;1835845;77;26795;-44
2022/04/02 14:02:56;;;;;;;0.30;0.30;;;;;;;;;;1825621;77;26251;-42
2022/04/02 14:05:28;;;;;;;0.30;0.30;;;;;;;;;;1825176;77;26259;-38
2022/04/02 14:08:10;;;;;;;0.20;0.20;;;;;;;;;;1830646;77;26305;-42
2022/04/02 14:10:39;;;;;;;0.30;0.30;;;;;;;;;;1825490;77;26411;-48
2022/04/02 14:13:07;;;;;;;1.20;0.37;;;;;;;;;;1824430;77;27207;-45
2022/04/02 14:15:35;;;;;;;0.72;0.57;;;;;;;;;;1818139;77;26337;-42
2022/04/02 14:18:03;;;;;;;0.40;0.30;;;;;;;;;;1824204;77;26324;-39
2022/04/02 14:20:31;;;;;;;0.40;0.30;;;;;;;;;;1824468;77;26332;-42
2022/04/02 14:22:59;;;;;;;0.30;0.30;;;;;;;;;;1825097;77;26344;-42
2022/04/02 14:25:31;;;;;;;0.30;0.30;;;;;;;;;;1823498;77;26286;-46
2022/04/02 14:28:00;;;;;;;0.30;0.30;;;;;;;;;;1834174;77;26336;-45
2022/04/02 14:30:35;;;;;;;0.50;0.40;;;;;;;;;;1824232;77;26282;-40
2022/04/02 14:33:03;;;;;;;0.40;0.40;;;;;;;;;;1825652;77;26275;-47
2022/04/02 14:35:49;;;;;;;0.30;0.30;;;;;;;;;;1824135;77;26277;-40
2022/04/02 14:38:34;;;;;;;1.32;0.50;;;;;;;;;;1823340;77;26710;-41
2022/04/02 14:41:08;;;;;;;0.60;0.40;;;;;;;;;;1824928;77;26829;-49
2022/04/02 14:43:53;;;;;;;5.58;0.30;;;;;;;;;;1825045;77;26348;-39
2022/04/02 14:46:22;;;;;;;0.28;0.28;;;;;;;;;;1823898;77;26675;-52
2022/04/02 14:48:58;;;;;;;0.95;0.33;;;;;;;;;;1824573;77;26766;-45
2022/04/02 14:51:29;;;;;;;2.83;0.40;;;;;;;;;;1825088;77;26948;-38
2022/04/02 14:54:04;;;;;;;0.35;0.35;;;;;;;;;;1823969;77;26338;-47
2022/04/02 14:56:38;;;;;;;0.47;0.40;;;;;;;;;;1824434;77;26662;-51
2022/04/02 14:59:13;;;;;;;0.93;0.30;;;;;;;;;;1821910;77;26298;-42
2022/04/02 15:01:42;;;;;;;0.80;0.30;;;;;;;;;;1825241;77;26887;-50
2022/04/02 15:04:23;;;;;;;0.40;0.40;;;;;;;;;;1823181;77;26800;-41